Andrew Morris

Olheiro - Manchester City
25 Nov 2027
Quinta-feira
Processo

Personalidade

Adaptabilidade (4) Ambição (13) Controvérsia (18) Lealdade (4) Pressão (19) Profissionalismo (7) Espírito Esportivo (12) Temperamento (6)

Perfil

Estilo de Treinamento Democrático
Licença Continental C
Determinação 14
Gestão de Pessoas 8
Motivação 10
Disciplina 17
Satisfação no Trabalho
100%
Fadiga
0%
Função Olheiro
Salário 130.8K p/s
Contrato 14.03.2029

Desempenho

Comportamento Bom
Eficácia do Treinamento
61%
Desenvolvimento do Jogador
70%
Prevenção de Lesões
85%
Implementação Tática
50%

Eventos Recentes

Participou de uma reunião de recrutamento agora
Recomendou um alvo de transferência agora
Recomendou um alvo de transferência agora
Participou de uma reunião de recrutamento 7d atrás
Recomendou um alvo de transferência 7d atrás
Recomendou um alvo de transferência 7d atrás
Recomendou um alvo de transferência 7d atrás
Recomendou um alvo de transferência 7d atrás

Monitorando agora

82
Jogador Clube Status Habilidade Confiança Observado Última observação Último voto
Boubacar Kamara Aston Villa Ativo 170 / 166 40% 2 16.08.2027 -
Riccardo Calafiori Hull City Ativo 170 / 163 40% 1 16.08.2027 -
Benjamin White Arsenal Ativo 154 / 160 40% 9 09.08.2027 -
Adrien Rabiot AC Milan Perdido 169 / 159 40% 1 09.08.2027 -
Pierre Kalulu Juventus Ativo 149 / 155 40% 6 08.08.2027 -
Micky van de Ven Tottenham Ativo 157 / 161 40% 6 08.08.2027 -
Moisés Caicedo Chelsea Ativo 178 / 173 40% 20 07.08.2027 -
Alexis Mac Allister Liverpool Ativo 175 / 166 40% 13 07.08.2027 -
Curtis Jones Inter Ativo 153 / 160 40% 3 05.08.2027 -
Khéphren Thuram Aston Villa Ativo 167 / 162 40% 1 05.08.2027 -
Sven Botman Newcastle United Ativo 164 / 161 40% 3 04.08.2027 -
Ryan Gravenberch Liverpool Ativo 173 / 165 40% 7 04.08.2027 -
Federico Dimarco Inter Ativo 172 / 164 40% 13 02.08.2027 -
William Saliba Arsenal Ativo 188 / 180 40% 10 30.07.2027 -
Bremer Juventus Perdido 172 / 166 40% 1 30.07.2027 -
Gabriel Arsenal Ativo 175 / 173 40% 6 29.07.2027 -
Jurriën Timber Arsenal Ativo 176 / 167 40% 6 29.07.2027 -
Levi Colwill Chelsea Ativo 168 / 165 40% 3 28.07.2027 -
Kenan Yıldız Juventus Ativo 174 / 162 40% 3 27.07.2027 -
Nicolò Barella Chelsea Ativo 174 / 169 40% 8 27.07.2027 -
Cody Gakpo Liverpool Ativo 165 / 163 40% 5 25.07.2027 -
Bruno Guimarães Arsenal Ativo 184 / 174 40% 8 24.07.2027 -
Bremer Juventus Perdido 170 / 165 40% 1 24.07.2027 -
Morgan Rogers Chelsea Ativo 176 / 159 40% 4 22.07.2027 -
Joško Gvardiol Napoli Ativo 163 / 166 40% 7 22.07.2027 -
Bremer Juventus Perdido 159 / 167 40% 1 12.07.2027 -
Wesley Fofana Chelsea Ativo 177 / 164 40% 1 08.07.2027 -
Declan Rice Arsenal Ativo 195 / 185 40% 8 04.07.2027 -
Sandro Tonali Tottenham Ativo 164 / 171 40% 11 02.07.2027 -
Martín Zubimendi Arsenal Ativo 158 / 166 40% 2 30.06.2027 -
Adrien Rabiot AC Milan Perdido 156 / 159 40% 1 23.06.2027 -
Bremer Juventus Perdido 163 / 163 40% 5 09.06.2027 -
Alessandro Bastoni Inter Ativo 164 / 163 40% 3 08.06.2027 -
Vangelis Pavlidis Twente Negociando 152 / 152 90% 1 01.06.2027 Aprovar
Kostantis Tzolakis Hull City Perdido 136 / 139 67% 1 01.06.2027 -
Raúl Rangel Sporting CP Negociando 132 / 132 66% 1 01.06.2027 Aprovar
Stanislav Agkatsev Sunderland Negociando 132 / 133 66% 1 01.06.2027 Aprovar
Dmytro Riznyk Cruz Azul Negociando 137 / 137 66% 1 01.06.2027 Aprovar
Kai Havertz Arsenal Ativo 159 / 160 40% 10 30.05.2027 -
Francisco Conceição Juventus Ativo 160 / 157 40% 3 30.05.2027 -
Amadou Onana Aston Villa Ativo 147 / 156 40% 4 26.05.2027 -
Alessandro Buongiorno Sassuolo Ativo 159 / 155 40% 4 22.05.2027 -
Dejan Kulusevski Tottenham Ativo 173 / 168 40% 8 18.05.2027 -
Leo Castledine Middlesbrough Ativo 117 / 133 40% 1 17.05.2027 -
Francesco Pio Esposito Inter Ativo 141 / 150 40% 1 17.05.2027 -
Jeremie Frimpong Liverpool Ativo 167 / 159 40% 6 16.05.2027 -
Jan Paul van Hecke Tottenham Ativo 149 / 155 40% 2 15.05.2027 -
Nico González Newcastle United Ativo 154 / 163 40% 4 13.05.2027 -
Gabriel Martinelli Brighton Ativo 176 / 164 40% 10 04.05.2027 -
Mohammed Kudus Tottenham Ativo 168 / 154 40% 4 01.05.2027 -
James Maddison Tottenham Ativo 163 / 158 40% 1 24.04.2027 -
Matías Soulé AS Roma Ativo 168 / 156 40% 3 22.04.2027 -
Miloš Kerkez Liverpool Ativo 147 / 155 40% 3 21.04.2027 -
Alexander Isak Liverpool Ativo 180 / 171 40% 2 18.04.2027 -
Reece James Chelsea Ativo 163 / 170 40% 2 31.03.2027 -
Tino Livramento Newcastle United Ativo 145 / 157 40% 1 16.03.2027 -
Bradley Barcola Liverpool Ativo 165 / 159 40% 5 09.03.2027 -
Federico Chiesa Liverpool Ativo 147 / 152 40% 1 05.03.2027 -
Manu Koné AS Roma Ativo 153 / 161 40% 5 18.02.2027 -
Dominik Szoboszlai Liverpool Ativo 157 / 162 40% 1 17.02.2027 -
Evidence Makgopa Orlando Pirates Ativo 115 / 110 40% 1 31.12.2026 -
Giacomo Raspadori Atalanta Ativo 139 / 145 40% 1 31.12.2026 -
Dango Ouattara Brentford Ativo 135 / 146 40% 2 29.12.2026 -
Themba Ngcobo SuperSport United Ativo 120 / 119 40% 2 28.12.2026 -
Robert Mizo Ashanti Gold Ativo 116 / 103 40% 3 26.12.2026 -
Etiosa Ighodaro Kaizer Chiefs Ativo 112 / 111 40% 1 26.12.2026 -
Thiago Brentford Ativo 158 / 149 40% 2 24.12.2026 -
Nicolas Jackson Aston Villa Ativo 158 / 145 40% 1 22.12.2026 -
Iliman N'Diaye Everton Ativo 166 / 155 40% 6 21.12.2026 -
Mandla Mahlangu Ajax Cape Town Ativo 105 / 107 40% 7 15.12.2026 -
Luis Vázquez Birmingham Ativo 142 / 126 40% 1 12.12.2026 -
Georginio Rutter Brighton Ativo 142 / 145 40% 2 08.12.2026 -
Yousef Salech Cardiff City Ativo 128 / 125 40% 1 23.11.2026 -
Rafael Navarro St. Louis CITY SC Ativo 128 / 129 40% 4 22.11.2026 -
Wessam Abou Ali Columbus Crew Ativo 145 / 127 40% 5 12.11.2026 -
Bénie Traoré New York City Ativo 140 / 123 40% 3 29.10.2026 -
Dejan Joveljić Seattle Sounders Ativo 130 / 126 40% 3 20.10.2026 -
Kévin Denkey FC Cincinnati Ativo 126 / 128 40% 2 19.10.2026 -
Tadeo Allende Inter Miami CF Ativo 120 / 120 40% 1 09.10.2026 -
Tomás Chancalay Minnesota United FC Ativo 142 / 126 40% 2 05.10.2026 -
Martín Ojeda Orlando City Ativo 119 / 131 40% 1 04.10.2026 -
Cheikh Sabaly Vancouver Whitecaps Ativo 117 / 124 40% 1 21.09.2026 -